Time;durP1;ratioP1;P1;durP2;ratioP2;P2;SDS_P1;SDS_P2;PMS_P1;PMS_P2;Temp;Humidity;BMP_temperature;BMP_pressure;BME280_temperature;BME280_humidity;BME280_pressure;Samples;Min_cycle;Max_cycle;Signal;HPM_P1;HPM_P2
2022/05/09 00:00:29;;;;;;;7.97;7.03;;;18.40;99.90;;;;;;5013231;28;20457;-73
2022/05/09 00:02:55;;;;;;;7.80;7.00;;;18.40;99.90;;;;;;5009584;28;20460;-73
2022/05/09 00:05:26;;;;;;;9.10;8.20;;;18.40;99.90;;;;;;5011826;28;20440;-73
2022/05/09 00:07:53;;;;;;;7.83;7.13;;;18.30;99.90;;;;;;5013727;28;20543;-73
2022/05/09 00:10:21;;;;;;;8.10;7.30;;;18.40;99.90;;;;;;5009549;28;21026;-73
2022/05/09 00:12:48;;;;;;;9.07;8.03;;;18.30;99.90;;;;;;5012141;28;20592;-73
2022/05/09 00:15:16;;;;;;;8.63;7.73;;;18.30;99.90;;;;;;5011144;28;20911;-72
2022/05/09 00:17:41;;;;;;;9.23;8.07;;;18.30;99.90;;;;;;5010278;28;20440;-73
2022/05/09 00:20:08;;;;;;;8.33;7.23;;;18.30;99.90;;;;;;5008788;28;20439;-73
2022/05/09 00:23:06;;;;;;;10.90;7.73;;;18.20;99.90;;;;;;5009083;28;20255;-72
2022/05/09 00:25:31;;;;;;;8.70;7.67;;;18.10;99.90;;;;;;5009949;28;20463;-73
2022/05/09 00:27:57;;;;;;;10.67;8.00;;;18.10;99.90;;;;;;5014191;28;20439;-73
2022/05/09 00:30:23;;;;;;;9.77;8.30;;;18.10;99.90;;;;;;5009766;28;20189;-73
2022/05/09 00:32:49;;;;;;;8.90;8.03;;;18.10;99.90;;;;;;5010834;28;20286;-73
2022/05/09 00:35:15;;;;;;;9.07;8.03;;;18.10;99.90;;;;;;5012433;28;20194;-83
2022/05/09 00:37:41;;;;;;;8.80;7.90;;;18.00;99.90;;;;;;5017067;28;20539;-79
2022/05/09 00:40:09;;;;;;;8.80;8.00;;;18.10;99.90;;;;;;5020458;28;20439;-79
2022/05/09 00:42:35;;;;;;;8.40;7.53;;;18.00;99.90;;;;;;5017605;28;20871;-79
2022/05/09 00:45:06;;;;;;;8.90;8.10;;;18.00;99.90;;;;;;5018229;28;20510;-80
2022/05/09 00:47:32;;;;;;;8.77;7.97;;;17.90;99.90;;;;;;5021538;28;20509;-79
2022/05/09 00:50:00;;;;;;;8.67;7.87;;;17.90;99.90;;;;;;5020899;28;20444;-80
2022/05/09 00:52:52;;;;;;;9.03;8.13;;;17.80;99.90;;;;;;5020510;28;20184;-80
2022/05/09 00:55:25;;;;;;;9.00;8.20;;;17.80;99.90;;;;;;5019991;28;20455;-80
2022/05/09 00:57:53;;;;;;;8.63;7.83;;;17.80;99.90;;;;;;5022396;28;21568;-80
2022/05/09 01:00:21;;;;;;;8.97;8.10;;;17.70;99.90;;;;;;5039196;28;20509;-80
2022/05/09 01:02:52;;;;;;;8.83;7.93;;;17.70;99.90;;;;;;5022223;28;20919;-80
2022/05/09 01:05:17;;;;;;;10.60;8.90;;;17.70;99.90;;;;;;5036258;28;20507;-79
2022/05/09 01:07:44;;;;;;;11.47;7.10;;;17.70;99.90;;;;;;5020884;28;20518;-80
2022/05/09 01:10:10;;;;;;;10.20;8.23;;;17.60;99.90;;;;;;5025182;28;20238;-80
2022/05/09 01:12:39;;;;;;;8.93;8.03;;;17.50;99.90;;;;;;5030278;28;20462;-80
2022/05/09 01:15:10;;;;;;;9.73;8.70;;;17.40;99.90;;;;;;5032808;28;20435;-80
2022/05/09 01:17:39;;;;;;;10.47;8.90;;;17.40;99.90;;;;;;5031790;28;20447;-80
2022/05/09 01:20:07;;;;;;;10.67;8.93;;;17.50;99.90;;;;;;5029354;28;21263;-81
2022/05/09 01:22:35;;;;;;;9.97;9.00;;;17.50;99.90;;;;;;5034346;28;20438;-79
2022/05/09 01:25:03;;;;;;;8.87;7.97;;;17.50;99.90;;;;;;5029926;28;20467;-79
2022/05/09 01:27:36;;;;;;;10.10;8.80;;;17.40;99.90;;;;;;5024864;28;20447;-81
2022/05/09 01:30:15;;;;;;;9.60;8.60;;;17.50;99.90;;;;;;5029066;28;20887;-80
2022/05/09 01:32:59;;;;;;;10.33;9.23;;;17.40;99.90;;;;;;5024633;28;20906;-81
2022/05/09 01:35:38;;;;;;;12.83;9.10;;;17.40;99.90;;;;;;5026260;28;20465;-81
2022/05/09 01:38:24;;;;;;;10.47;9.37;;;17.40;99.90;;;;;;5024091;28;21014;-80
2022/05/09 01:40:50;;;;;;;9.63;8.63;;;17.40;99.90;;;;;;5026475;28;20439;-81
2022/05/09 01:43:34;;;;;;;9.47;8.57;;;17.50;99.90;;;;;;5025855;28;20834;-79
2022/05/09 01:46:03;;;;;;;9.97;8.93;;;17.40;99.90;;;;;;5026604;28;20263;-80
2022/05/09 01:51:19;;;;;;;13.53;9.47;;;17.30;99.90;;;;;;5016367;28;20496;-80
2022/05/09 01:53:49;;;;;;;9.47;8.47;;;17.10;99.90;;;;;;5039783;28;20455;-80
2022/05/09 01:56:16;;;;;;;10.23;9.10;;;17.20;99.90;;;;;;5017048;28;20272;-80
2022/05/09 01:58:41;;;;;;;10.80;9.00;;;17.20;99.90;;;;;;5023721;28;20434;-79
2022/05/09 02:01:08;;;;;;;11.33;9.60;;;16.90;99.90;;;;;;5023373;28;20479;-80
2022/05/09 02:03:34;;;;;;;11.47;9.00;;;16.90;99.90;;;;;;5022176;28;20220;-80
2022/05/09 02:06:00;;;;;;;10.80;9.70;;;17.00;99.90;;;;;;5025164;28;20432;-80
2022/05/09 02:08:26;;;;;;;10.23;9.23;;;17.00;99.90;;;;;;5026231;28;20916;-80
2022/05/09 02:10:52;;;;;;;10.70;9.60;;;17.00;99.90;;;;;;5023217;28;20439;-80
2022/05/09 02:13:18;;;;;;;9.77;8.87;;;17.00;99.90;;;;;;5024026;28;20216;-80
2022/05/09 02:15:44;;;;;;;10.23;9.30;;;16.80;99.90;;;;;;5019349;28;20259;-80
2022/05/09 02:18:10;;;;;;;9.70;8.70;;;16.80;99.90;;;;;;5022539;28;20177;-80
2022/05/09 02:20:36;;;;;;;10.40;9.37;;;16.80;99.90;;;;;;5021396;28;20442;-80
2022/05/09 02:23:01;;;;;;;9.07;8.27;;;16.90;99.90;;;;;;5023812;28;20240;-80
2022/05/09 02:25:29;;;;;;;10.27;9.27;;;16.80;99.90;;;;;;5026445;28;20215;-80
2022/05/09 02:28:06;;;;;;;9.83;8.67;;;16.70;99.90;;;;;;5021026;28;20186;-80
2022/05/09 02:30:33;;;;;;;12.50;9.40;;;16.70;99.90;;;;;;5022926;28;20434;-80
2022/05/09 02:32:58;;;;;;;10.00;9.00;;;16.60;99.90;;;;;;5018884;28;20542;-81
2022/05/09 02:35:24;;;;;;;10.17;9.13;;;16.70;99.90;;;;;;5012748;28;20466;-74
2022/05/09 02:37:53;;;;;;;10.20;9.20;;;16.70;99.90;;;;;;5012818;28;20670;-75
2022/05/09 02:40:20;;;;;;;9.37;8.40;;;16.60;99.90;;;;;;5008874;28;20184;-75
2022/05/09 02:42:46;;;;;;;10.90;9.50;;;16.60;99.90;;;;;;5012859;28;20451;-75
2022/05/09 02:45:12;;;;;;;9.43;8.53;;;16.60;99.90;;;;;;5011447;28;20426;-74
2022/05/09 02:47:41;;;;;;;9.40;8.50;;;16.60;99.90;;;;;;5009557;28;20758;-74
2022/05/09 02:50:09;;;;;;;9.47;8.67;;;16.50;99.90;;;;;;5009585;28;20436;-74
2022/05/09 02:52:37;;;;;;;13.70;8.90;;;16.50;99.90;;;;;;5011811;28;20465;-74
2022/05/09 02:55:05;;;;;;;9.60;8.70;;;16.50;99.90;;;;;;5006800;28;20446;-74
2022/05/09 02:57:30;;;;;;;9.53;8.60;;;16.40;99.90;;;;;;5008427;28;20435;-75
2022/05/09 02:59:56;;;;;;;9.57;8.57;;;16.50;99.90;;;;;;5008661;28;20451;-75
2022/05/09 03:02:21;;;;;;;10.53;8.70;;;16.50;99.90;;;;;;5009931;28;20173;-75
2022/05/09 03:04:48;;;;;;;8.90;8.03;;;16.40;99.90;;;;;;5005935;28;20205;-73
2022/05/09 03:07:16;;;;;;;10.70;9.60;;;16.50;99.90;;;;;;5004583;28;20191;-72
2022/05/09 03:09:44;;;;;;;9.97;8.97;;;16.50;99.90;;;;;;5006992;28;20438;-72
2022/05/09 03:12:11;;;;;;;11.20;9.47;;;16.40;99.90;;;;;;5010654;28;20431;-72
2022/05/09 03:14:37;;;;;;;8.97;8.10;;;16.30;99.90;;;;;;5011859;28;21191;-72
2022/05/09 03:17:05;;;;;;;10.80;8.53;;;16.20;99.90;;;;;;5009182;28;20477;-72
2022/05/09 03:19:31;;;;;;;11.00;8.30;;;16.20;99.90;;;;;;5010772;28;20439;-72
2022/05/09 03:21:57;;;;;;;10.23;9.23;;;16.20;99.90;;;;;;5007307;28;20981;-72
2022/05/09 03:24:23;;;;;;;10.30;9.30;;;16.10;99.90;;;;;;5002772;28;20365;-72
2022/05/09 03:26:49;;;;;;;9.70;8.70;;;16.10;99.90;;;;;;5012038;28;20215;-73
2022/05/09 03:29:18;;;;;;;9.73;8.83;;;16.10;99.90;;;;;;5009946;28;20427;-73
2022/05/09 03:31:46;;;;;;;10.60;9.60;;;16.20;99.90;;;;;;5010259;28;20428;-72
2022/05/09 03:34:12;;;;;;;9.87;8.87;;;16.00;99.90;;;;;;5012611;28;20928;-73
2022/05/09 03:36:38;;;;;;;10.17;9.10;;;16.00;99.90;;;;;;5010711;28;20534;-73
2022/05/09 03:39:05;;;;;;;10.27;9.27;;;16.00;99.90;;;;;;5007456;28;20465;-73
2022/05/09 03:41:30;;;;;;;10.93;8.90;;;16.10;99.90;;;;;;5007774;28;21035;-72
2022/05/09 03:43:56;;;;;;;10.37;9.37;;;16.10;99.90;;;;;;5009007;28;20544;-73
2022/05/09 03:46:21;;;;;;;11.20;9.80;;;16.10;99.90;;;;;;5013982;28;20196;-73
2022/05/09 03:48:48;;;;;;;10.17;9.17;;;16.00;99.90;;;;;;5004577;28;20195;-72
2022/05/09 03:51:13;;;;;;;10.30;9.40;;;16.00;99.90;;;;;;5015513;28;21158;-73
2022/05/09 03:53:39;;;;;;;10.57;9.50;;;16.00;99.90;;;;;;5011042;28;20455;-73
2022/05/09 03:56:07;;;;;;;10.00;9.00;;;16.00;99.90;;;;;;5012036;28;20177;-72
2022/05/09 03:58:33;;;;;;;12.00;9.40;;;15.90;99.90;;;;;;5016064;28;20180;-73
2022/05/09 04:00:59;;;;;;;11.53;10.43;;;15.80;99.90;;;;;;5009618;28;20546;-72
2022/05/09 04:03:25;;;;;;;14.77;10.30;;;15.90;99.90;;;;;;5011794;28;20570;-72
2022/05/09 04:05:50;;;;;;;10.70;9.60;;;16.00;99.90;;;;;;5015155;28;20185;-72
2022/05/09 04:08:20;;;;;;;11.37;9.40;;;15.90;99.90;;;;;;5015473;28;20180;-73
2022/05/09 04:10:47;;;;;;;11.03;9.93;;;15.90;99.90;;;;;;5025994;28;20684;-72
2022/05/09 04:13:13;;;;;;;14.67;9.17;;;15.90;99.90;;;;;;5013350;28;20462;-72
2022/05/09 04:18:28;;;;;;;11.17;9.50;;;15.90;99.90;;;;;;5012870;28;20505;-73
2022/05/09 04:20:54;;;;;;;11.37;10.37;;;16.00;99.90;;;;;;5013561;28;20451;-73
2022/05/09 04:23:20;;;;;;;11.57;10.37;;;16.00;99.90;;;;;;5015758;28;20537;-73
2022/05/09 04:25:46;;;;;;;11.70;10.50;;;15.90;99.90;;;;;;5029228;28;20428;-72
2022/05/09 04:28:12;;;;;;;14.80;10.43;;;15.80;99.90;;;;;;5014555;28;20736;-72
2022/05/09 04:30:39;;;;;;;11.60;10.13;;;15.80;99.90;;;;;;5014419;28;20546;-73
2022/05/09 04:33:07;;;;;;;10.77;9.77;;;15.80;99.90;;;;;;5012077;28;20462;-73
2022/05/09 04:35:34;;;;;;;11.90;10.63;;;15.80;99.90;;;;;;5013163;28;20490;-72
2022/05/09 04:38:00;;;;;;;13.10;11.27;;;15.90;99.90;;;;;;5025506;28;20460;-73
2022/05/09 04:40:29;;;;;;;11.57;10.17;;;15.80;99.90;;;;;;5011180;28;20531;-72
2022/05/09 04:42:56;;;;;;;12.77;10.60;;;15.80;99.90;;;;;;5011411;28;20471;-72
2022/05/09 04:45:23;;;;;;;11.83;10.73;;;15.80;99.90;;;;;;5014132;28;20427;-73
2022/05/09 04:47:52;;;;;;;12.30;11.10;;;15.80;99.90;;;;;;5010008;28;20447;-72
2022/05/09 04:50:20;;;;;;;12.83;10.50;;;15.80;99.90;;;;;;5014647;28;20521;-72
2022/05/09 04:52:47;;;;;;;12.23;10.53;;;15.80;99.90;;;;;;5010021;28;20559;-73
2022/05/09 04:55:13;;;;;;;15.37;11.17;;;15.80;99.90;;;;;;5012325;28;20826;-72
2022/05/09 04:57:39;;;;;;;11.13;10.03;;;15.80;99.90;;;;;;5013130;28;20431;-73
2022/05/09 05:00:09;;;;;;;11.53;10.43;;;15.80;99.90;;;;;;5015818;28;20470;-72
2022/05/09 05:02:36;;;;;;;11.97;10.77;;;15.80;99.90;;;;;;5014155;28;20419;-72
2022/05/09 05:05:03;;;;;;;10.37;9.27;;;15.90;99.90;;;;;;5009313;28;20478;-72
2022/05/09 05:07:28;;;;;;;14.20;10.33;;;15.90;99.90;;;;;;5011092;28;20428;-72
2022/05/09 05:09:54;;;;;;;12.97;11.77;;;15.80;99.90;;;;;;5014435;28;20483;-72
2022/05/09 05:12:20;;;;;;;11.90;10.67;;;15.80;99.90;;;;;;5014520;28;20308;-73
2022/05/09 05:14:45;;;;;;;14.63;10.97;;;15.80;99.90;;;;;;5016220;28;20204;-72
2022/05/09 05:17:11;;;;;;;12.20;11.00;;;15.90;99.90;;;;;;5011224;28;20181;-73
2022/05/09 05:19:40;;;;;;;12.63;11.43;;;15.90;99.90;;;;;;5010016;28;20634;-72
2022/05/09 05:22:07;;;;;;;13.30;11.83;;;15.90;99.90;;;;;;5012814;28;20416;-72
2022/05/09 05:24:34;;;;;;;10.87;9.87;;;15.90;99.90;;;;;;5013194;28;20481;-72
2022/05/09 05:27:00;;;;;;;11.90;10.60;;;15.90;99.90;;;;;;5013567;28;20439;-72
2022/05/09 05:29:26;;;;;;;11.83;10.63;;;15.90;99.90;;;;;;5011617;28;20420;-71
2022/05/09 05:31:52;;;;;;;12.40;11.20;;;15.90;99.90;;;;;;5030081;28;20434;-73
2022/05/09 05:34:18;;;;;;;13.47;11.67;;;15.90;99.90;;;;;;5014224;28;20443;-72
2022/05/09 05:36:44;;;;;;;11.73;10.63;;;16.00;99.90;;;;;;5012465;28;20196;-72
2022/05/09 05:39:13;;;;;;;12.37;11.07;;;16.00;99.90;;;;;;5012626;28;20427;-72
2022/05/09 05:41:39;;;;;;;13.80;11.00;;;16.10;99.90;;;;;;5013406;28;20716;-72
2022/05/09 05:44:08;;;;;;;11.03;10.03;;;16.10;99.90;;;;;;5012609;28;20471;-72
2022/05/09 05:46:35;;;;;;;12.90;10.83;;;16.10;99.90;;;;;;5014383;28;20185;-73
2022/05/09 05:49:00;;;;;;;15.97;11.83;;;16.10;99.90;;;;;;5008192;28;20452;-73
2022/05/09 05:51:26;;;;;;;15.20;11.50;;;16.20;99.90;;;;;;5014492;28;20462;-72
2022/05/09 05:53:53;;;;;;;12.57;10.60;;;16.20;99.90;;;;;;5013341;28;20205;-73
2022/05/09 05:56:19;;;;;;;11.73;10.53;;;16.10;99.90;;;;;;5012980;28;20837;-74
2022/05/09 05:58:44;;;;;;;12.93;10.10;;;16.30;99.90;;;;;;5013378;28;20431;-73
2022/05/09 06:01:10;;;;;;;12.87;11.13;;;16.30;99.90;;;;;;5027686;28;20942;-73
2022/05/09 06:03:36;;;;;;;12.30;11.07;;;16.30;99.90;;;;;;5012714;28;20220;-73
2022/05/09 06:06:02;;;;;;;12.00;10.80;;;16.30;99.90;;;;;;5010744;28;20185;-73
2022/05/09 06:08:28;;;;;;;12.20;11.10;;;16.40;99.90;;;;;;5026651;28;20181;-74
2022/05/09 06:10:53;;;;;;;13.93;10.30;;;16.50;99.90;;;;;;5014580;28;20435;-72
2022/05/09 06:13:19;;;;;;;13.47;10.83;;;16.60;99.90;;;;;;5006420;28;20243;-73
2022/05/09 06:15:45;;;;;;;13.83;10.50;;;16.60;99.90;;;;;;5011384;28;20177;-73
2022/05/09 06:18:14;;;;;;;12.27;10.37;;;16.70;99.90;;;;;;5007865;28;20267;-73
2022/05/09 06:20:43;;;;;;;11.67;9.53;;;16.70;99.90;;;;;;5011890;28;20196;-72
2022/05/09 06:23:12;;;;;;;12.50;11.30;;;16.80;99.90;;;;;;5014268;28;20928;-72
2022/05/09 06:25:38;;;;;;;11.70;10.70;;;16.90;99.90;;;;;;5009988;28;20430;-72
2022/05/09 06:28:05;;;;;;;11.47;10.37;;;16.90;99.90;;;;;;5010326;28;20459;-72
2022/05/09 06:30:31;;;;;;;11.93;10.30;;;17.00;99.90;;;;;;5013504;28;20421;-72
2022/05/09 06:32:57;;;;;;;11.00;9.90;;;17.00;99.90;;;;;;5012649;28;20455;-72
2022/05/09 06:35:26;;;;;;;13.57;11.13;;;17.10;99.90;;;;;;5011829;28;20431;-72
2022/05/09 06:38:05;;;;;;;11.23;10.13;;;17.20;99.90;;;;;;5009762;28;20424;-72
2022/05/09 06:40:32;;;;;;;11.70;10.50;;;17.20;99.90;;;;;;5012726;28;20510;-72
2022/05/09 06:42:59;;;;;;;12.07;10.47;;;17.30;99.90;;;;;;5010542;28;20473;-73
2022/05/09 06:45:25;;;;;;;11.60;10.50;;;17.30;99.90;;;;;;5011332;28;20432;-73
2022/05/09 06:47:53;;;;;;;17.40;10.60;;;17.30;99.90;;;;;;5012014;28;20508;-73
2022/05/09 06:50:22;;;;;;;11.97;10.80;;;17.30;99.90;;;;;;5027135;28;20435;-73
2022/05/09 06:52:48;;;;;;;14.33;10.30;;;17.40;99.90;;;;;;5012589;28;20443;-73
2022/05/09 06:55:15;;;;;;;11.17;10.10;;;17.50;99.90;;;;;;5012144;28;20427;-74
2022/05/09 06:57:43;;;;;;;11.37;10.17;;;17.50;99.90;;;;;;5014979;28;20185;-73
2022/05/09 07:00:13;;;;;;;17.50;10.97;;;17.50;99.90;;;;;;5009916;28;20522;-74
2022/05/09 07:02:38;;;;;;;10.37;9.37;;;17.50;99.90;;;;;;5025329;28;20438;-74
2022/05/09 07:05:06;;;;;;;14.30;11.23;;;17.60;99.90;;;;;;5012696;28;20466;-74
2022/05/09 07:07:31;;;;;;;14.60;10.43;;;17.70;99.90;;;;;;5029686;28;20246;-74
2022/05/09 07:10:00;;;;;;;11.63;10.43;;;17.80;99.90;;;;;;5014672;28;20424;-73
2022/05/09 07:12:25;;;;;;;11.90;10.70;;;17.90;99.90;;;;;;5017487;28;20184;-73
2022/05/09 07:14:51;;;;;;;11.90;10.20;;;17.90;99.90;;;;;;5021138;28;20416;-73
2022/05/09 07:17:17;;;;;;;11.17;10.07;;;17.90;99.90;;;;;;5015147;28;20186;-73
2022/05/09 07:19:43;;;;;;;10.53;9.43;;;17.90;99.90;;;;;;5012251;28;20177;-73
2022/05/09 07:22:09;;;;;;;10.83;9.70;;;17.90;99.90;;;;;;5017516;28;20206;-72
2022/05/09 07:24:34;;;;;;;28.63;22.80;;;18.00;99.90;;;;;;5016420;28;21310;-72
2022/05/09 07:27:00;;;;;;;14.60;12.50;;;18.10;99.90;;;;;;5018057;28;20177;-73
2022/05/09 07:29:26;;;;;;;12.60;11.50;;;18.10;99.90;;;;;;5012455;28;20470;-72
2022/05/09 07:31:51;;;;;;;11.77;9.90;;;18.30;99.90;;;;;;5017380;28;20178;-72
2022/05/09 07:34:17;;;;;;;12.20;10.40;;;18.30;99.90;;;;;;5015560;28;20223;-72
2022/05/09 07:36:43;;;;;;;11.40;10.30;;;18.20;99.90;;;;;;5012018;28;20189;-73
2022/05/09 07:39:09;;;;;;;14.67;10.63;;;18.40;99.90;;;;;;5018501;28;20439;-72
2022/05/09 07:41:35;;;;;;;11.10;10.00;;;18.50;99.90;;;;;;5019729;28;20739;-73
2022/05/09 07:44:01;;;;;;;11.50;10.40;;;18.50;99.90;;;;;;5015138;28;20250;-73
2022/05/09 07:46:26;;;;;;;13.60;9.60;;;18.60;99.90;;;;;;5011484;28;21127;-73
2022/05/09 07:48:52;;;;;;;12.10;10.83;;;18.60;99.90;;;;;;5020035;28;20430;-73
2022/05/09 07:51:19;;;;;;;11.57;10.30;;;18.70;99.90;;;;;;5016742;28;20169;-74
2022/05/09 07:53:45;;;;;;;10.30;9.40;;;18.80;99.90;;;;;;5012606;28;20838;-73
2022/05/09 07:56:10;;;;;;;11.10;10.00;;;18.90;99.90;;;;;;5015125;28;20441;-73
2022/05/09 07:58:36;;;;;;;11.63;9.53;;;18.90;99.90;;;;;;5013557;28;20438;-74
2022/05/09 08:01:04;;;;;;;14.10;12.57;;;18.90;99.90;;;;;;5014409;28;21187;-74
2022/05/09 08:03:31;;;;;;;12.87;11.50;;;18.90;99.90;;;;;;5017846;28;20271;-73
2022/05/09 08:06:02;;;;;;;13.47;11.20;;;19.00;99.90;;;;;;5016017;28;20424;-74
2022/05/09 08:08:28;;;;;;;19.53;15.87;;;19.00;99.90;;;;;;5016913;28;20419;-74
2022/05/09 08:10:58;;;;;;;15.60;13.97;;;19.10;99.90;;;;;;5012665;28;21278;-74
2022/05/09 08:13:25;;;;;;;12.60;10.63;;;19.20;99.90;;;;;;5014486;28;20438;-74
2022/05/09 08:15:52;;;;;;;10.47;9.57;;;19.30;99.90;;;;;;5021294;28;20974;-73
2022/05/09 08:18:19;;;;;;;9.53;7.97;;;19.30;99.90;;;;;;5010495;28;20443;-74
2022/05/09 08:20:46;;;;;;;13.83;9.30;;;19.50;99.90;;;;;;5028043;28;20431;-73
2022/05/09 08:23:16;;;;;;;10.40;9.37;;;19.60;99.90;;;;;;5012606;28;20486;-73
2022/05/09 08:25:46;;;;;;;12.30;9.10;;;19.50;99.90;;;;;;5015066;28;20450;-73
2022/05/09 08:28:18;;;;;;;13.33;11.63;;;19.60;99.90;;;;;;5014208;28;20615;-73
2022/05/09 08:30:44;;;;;;;13.27;11.90;;;19.60;99.90;;;;;;5017704;28;20423;-73
2022/05/09 08:33:17;;;;;;;10.20;9.20;;;19.70;99.90;;;;;;5009172;28;20448;-73
2022/05/09 08:35:48;;;;;;;12.20;11.00;;;19.80;99.90;;;;;;5014761;28;20428;-73
2022/05/09 08:38:13;;;;;;;10.80;9.70;;;19.90;99.90;;;;;;5008905;28;20985;-74
2022/05/09 08:40:49;;;;;;;10.90;9.60;;;20.00;99.90;;;;;;5013853;28;20423;-73
2022/05/09 08:43:23;;;;;;;9.70;8.70;;;20.00;99.90;;;;;;5015663;28;20455;-72
2022/05/09 08:45:58;;;;;;;10.80;9.70;;;20.00;99.90;;;;;;5016005;28;20424;-74
2022/05/09 08:48:48;;;;;;;11.37;10.30;;;20.00;99.90;;;;;;5011176;28;20423;-73
2022/05/09 08:51:33;;;;;;;10.70;9.60;;;20.10;99.90;;;;;;5008073;28;20427;-74
2022/05/09 08:54:04;;;;;;;10.33;9.43;;;20.30;99.90;;;;;;5033389;28;20474;-73
2022/05/09 08:56:31;;;;;;;11.70;10.57;;;20.30;99.90;;;;;;5012119;28;20439;-72
2022/05/09 08:59:01;;;;;;;11.10;10.10;;;20.40;99.90;;;;;;5014599;28;20510;-72
2022/05/09 09:01:41;;;;;;;12.83;10.17;;;20.40;99.90;;;;;;5010574;28;20466;-73
2022/05/09 09:04:13;;;;;;;10.40;9.40;;;20.50;99.90;;;;;;5016603;28;20865;-72
2022/05/09 09:07:12;;;;;;;9.73;7.80;;;20.50;99.90;;;;;;5012978;28;20466;-73
2022/05/09 09:09:53;;;;;;;12.83;9.60;;;20.70;99.90;;;;;;5007773;28;20432;-72
2022/05/09 09:12:48;;;;;;;11.10;8.67;;;20.80;99.90;;;;;;5019019;28;20484;-72
2022/05/09 09:15:38;;;;;;;9.57;8.20;;;20.70;99.90;;;;;;5010663;28;20428;-73
2022/05/09 09:18:24;;;;;;;8.40;7.60;;;20.80;99.90;;;;;;5012131;28;20447;-73
2022/05/09 09:21:04;;;;;;;9.17;8.07;;;20.80;99.90;;;;;;5010117;28;20434;-72
2022/05/09 09:23:42;;;;;;;10.43;7.97;;;21.00;99.90;;;;;;5014923;28;20832;-73
2022/05/09 09:26:20;;;;;;;9.10;8.30;;;21.10;99.90;;;;;;5012276;28;20889;-73
2022/05/09 09:29:10;;;;;;;9.80;8.67;;;21.20;99.90;;;;;;5011347;28;20435;-72
2022/05/09 09:31:50;;;;;;;9.87;8.60;;;21.20;99.90;;;;;;5010556;28;20431;-72
2022/05/09 09:34:43;;;;;;;9.30;8.30;;;21.20;99.90;;;;;;5015655;28;20562;-72
2022/05/09 09:37:16;;;;;;;8.63;7.83;;;21.30;99.90;;;;;;5014061;28;20943;-73
2022/05/09 09:39:42;;;;;;;9.73;8.57;;;21.30;99.90;;;;;;5012479;28;20944;-74
2022/05/09 09:42:08;;;;;;;9.67;8.10;;;21.40;99.90;;;;;;5017415;28;20435;-72
2022/05/09 09:44:38;;;;;;;11.40;10.40;;;21.50;99.90;;;;;;5018743;28;20702;-74
2022/05/09 09:47:28;;;;;;;12.23;11.03;;;21.50;99.90;;;;;;5015824;28;20511;-73
2022/05/09 09:50:24;;;;;;;9.43;8.53;;;21.70;99.90;;;;;;5015644;28;21133;-73
2022/05/09 09:52:56;;;;;;;9.20;8.43;;;21.70;99.90;;;;;;5009825;28;20462;-73
2022/05/09 09:55:35;;;;;;;9.70;8.80;;;21.80;99.90;;;;;;5028939;28;20448;-73
2022/05/09 09:58:27;;;;;;;10.07;8.80;;;21.80;99.90;;;;;;5012658;28;20435;-73
2022/05/09 10:01:14;;;;;;;9.50;8.03;;;21.90;99.90;;;;;;5023206;28;20446;-72
2022/05/09 10:03:44;;;;;;;9.00;8.10;;;22.00;99.90;;;;;;5013690;28;20586;-73
2022/05/09 10:06:21;;;;;;;8.47;7.67;;;22.10;99.90;;;;;;5009660;28;20526;-72
2022/05/09 10:08:58;;;;;;;9.00;8.20;;;22.20;99.90;;;;;;5016790;28;20531;-73
2022/05/09 10:11:30;;;;;;;8.87;7.90;;;22.20;99.90;;;;;;5012566;28;20431;-73
2022/05/09 10:14:06;;;;;;;10.80;7.63;;;22.40;99.90;;;;;;5011920;28;20456;-73
2022/05/09 10:16:41;;;;;;;9.77;8.73;;;22.50;99.90;;;;;;5012987;28;20422;-74
2022/05/09 10:19:11;;;;;;;9.00;8.20;;;22.50;99.90;;;;;;5013862;28;20438;-73
2022/05/09 10:27:28;;;;;;;7.27;6.53;;;22.80;99.90;;;;;;5016273;28;20445;-73
2022/05/09 10:30:29;;;;;;;8.13;7.43;;;22.70;99.90;;;;;;5016041;28;20455;-73
2022/05/09 10:33:11;;;;;;;9.00;8.20;;;22.80;99.90;;;;;;5009269;28;20495;-74
2022/05/09 10:35:58;;;;;;;8.23;7.43;;;23.00;99.90;;;;;;5030236;28;20494;-73
2022/05/09 10:38:44;;;;;;;9.27;8.37;;;23.00;99.90;;;;;;5017612;28;21320;-73
2022/05/09 10:41:43;;;;;;;7.40;6.80;;;23.00;99.90;;;;;;5007629;28;20522;-74
2022/05/09 10:44:21;;;;;;;9.57;8.70;;;23.00;99.90;;;;;;5017628;28;20506;-73
2022/05/09 10:46:57;;;;;;;8.90;8.00;;;23.20;99.90;;;;;;5014459;28;20427;-74
2022/05/09 10:49:43;;;;;;;11.03;8.03;;;23.30;99.90;;;;;;5012300;28;20452;-73
2022/05/09 10:52:29;;;;;;;7.83;7.13;;;23.30;99.90;;;;;;5013467;28;20450;-72
2022/05/09 10:55:08;;;;;;;9.50;7.40;;;23.50;99.90;;;;;;5011914;28;20866;-73
2022/05/09 10:57:46;;;;;;;12.10;9.00;;;23.60;99.90;;;;;;5014453;28;20427;-73
2022/05/09 11:00:19;;;;;;;9.10;8.17;;;23.60;99.90;;;;;;5013188;28;20534;-72
2022/05/09 11:02:54;;;;;;;10.00;8.97;;;23.70;99.90;;;;;;5015221;28;20455;-72
2022/05/09 11:05:24;;;;;;;15.50;9.17;;;23.80;99.90;;;;;;5010573;28;20496;-72
2022/05/09 11:07:55;;;;;;;9.13;8.33;;;23.80;99.90;;;;;;5014346;28;20787;-73
2022/05/09 11:10:21;;;;;;;8.27;7.40;;;23.90;99.90;;;;;;5009568;28;20930;-76
2022/05/09 11:12:53;;;;;;;7.47;6.87;;;24.00;99.90;;;;;;5013522;28;20472;-73
2022/05/09 11:15:29;;;;;;;9.47;8.57;;;24.10;99.90;;;;;;5015419;28;20185;-74
2022/05/09 11:17:58;;;;;;;8.37;7.67;;;24.20;99.90;;;;;;5008678;28;20441;-73
2022/05/09 11:20:39;;;;;;;7.83;7.13;;;24.30;99.90;;;;;;5009646;28;20798;-72
2022/05/09 11:23:43;;;;;;;8.87;7.93;;;24.40;99.90;;;;;;5011354;28;20450;-73
2022/05/09 11:26:33;;;;;;;7.47;6.67;;;24.60;99.90;;;;;;5008957;28;20462;-73
2022/05/09 11:29:35;;;;;;;9.00;8.20;;;24.90;99.90;;;;;;5010604;28;20431;-74
2022/05/09 11:32:06;;;;;;;7.00;6.50;;;25.00;99.90;;;;;;5012654;28;20501;-73
2022/05/09 11:34:49;;;;;;;8.60;7.70;;;25.00;99.90;;;;;;5029344;28;20447;-74
2022/05/09 11:37:21;;;;;;;7.17;6.57;;;25.10;99.90;;;;;;5009451;28;20435;-74
2022/05/09 11:39:51;;;;;;;7.30;6.70;;;25.30;99.90;;;;;;5012254;28;20420;-74
2022/05/09 11:45:20;;;;;;;7.77;7.07;;;25.80;99.90;;;;;;5014786;28;20844;-74
2022/05/09 11:47:53;;;;;;;8.40;7.07;;;26.20;98.60;;;;;;5008790;28;20526;-74
2022/05/09 11:50:27;;;;;;;10.80;9.77;;;26.40;97.60;;;;;;5010338;28;20501;-74
2022/05/09 11:52:56;;;;;;;8.33;7.23;;;26.60;97.00;;;;;;5031519;28;21091;-74
2022/05/09 11:55:25;;;;;;;6.97;6.27;;;27.00;95.00;;;;;;5018094;28;20513;-74
2022/05/09 11:57:58;;;;;;;8.20;7.20;;;27.60;94.00;;;;;;5012594;28;20431;-74
2022/05/09 12:00:29;;;;;;;7.33;6.50;;;28.50;93.80;;;;;;5014980;28;20573;-74
2022/05/09 12:02:57;;;;;;;7.57;6.73;;;30.10;91.80;;;;;;5013854;28;20463;-74
2022/05/09 12:05:26;;;;;;;8.73;6.73;;;32.00;85.20;;;;;;5029031;28;20467;-72
2022/05/09 12:07:55;;;;;;;7.83;6.10;;;33.60;75.60;;;;;;5013149;28;20431;-74
2022/05/09 12:10:28;;;;;;;8.33;6.73;;;35.20;66.50;;;;;;5016341;28;20419;-73
2022/05/09 12:12:58;;;;;;;7.50;6.90;;;35.90;59.70;;;;;;5014163;28;20463;-73
2022/05/09 12:15:24;;;;;;;6.20;5.60;;;37.20;56.00;;;;;;5015072;28;20816;-75
2022/05/09 12:18:00;;;;;;;6.53;5.93;;;37.70;51.90;;;;;;5013169;28;20457;-74
2022/05/09 12:20:29;;;;;;;6.53;5.90;;;37.80;49.60;;;;;;5016233;28;20735;-73
2022/05/09 12:23:03;;;;;;;11.27;6.40;;;38.50;47.70;;;;;;5015718;28;20848;-73
2022/05/09 12:25:36;;;;;;;6.90;6.30;;;39.10;46.90;;;;;;5029561;28;20854;-73
2022/05/09 12:28:22;;;;;;;7.20;6.60;;;40.30;44.40;;;;;;5014206;28;20476;-73
2022/05/09 12:31:01;;;;;;;7.43;6.07;;;40.80;43.40;;;;;;5014959;28;20502;-73
2022/05/09 12:33:36;;;;;;;6.57;5.80;;;40.90;42.60;;;;;;5014947;28;20485;-73
2022/05/09 12:36:32;;;;;;;6.50;5.27;;;41.70;41.10;;;;;;5012290;28;20436;-74
2022/05/09 12:39:36;;;;;;;5.63;5.17;;;42.50;38.80;;;;;;5015376;28;20446;-74
2022/05/09 12:42:05;;;;;;;7.77;6.10;;;43.00;38.30;;;;;;5012876;28;20442;-73
2022/05/09 12:44:41;;;;;;;6.23;5.63;;;41.30;38.00;;;;;;5014163;28;20512;-74
2022/05/09 12:47:11;;;;;;;8.40;5.80;;;40.60;38.80;;;;;;5012937;28;21027;-74
2022/05/09 12:49:57;;;;;;;6.60;5.43;;;41.40;38.80;;;;;;5013250;28;20431;-74
2022/05/09 12:52:28;;;;;;;5.87;5.37;;;42.40;37.50;;;;;;5012620;28;20455;-73
2022/05/09 12:57:41;;;;;;;5.57;5.17;;;43.20;36.40;;;;;;5014174;28;20484;-74
2022/05/09 13:00:16;;;;;;;6.50;5.87;;;44.20;35.40;;;;;;5013118;28;20443;-74
2022/05/09 13:02:42;;;;;;;6.00;5.40;;;44.70;34.40;;;;;;5015957;28;20931;-74
2022/05/09 13:05:09;;;;;;;5.70;5.17;;;43.40;34.00;;;;;;5014437;28;20474;-74
2022/05/09 13:07:56;;;;;;;5.07;4.67;;;41.50;35.20;;;;;;5014452;28;20192;-74
2022/05/09 13:10:23;;;;;;;5.70;5.20;;;41.20;36.20;;;;;;5009287;28;20416;-74
2022/05/09 13:12:51;;;;;;;6.00;5.50;;;41.40;35.50;;;;;;5018610;28;20447;-74